createdAt,value
2023-03-11T00:01:11.416Z,100407.66
2023-03-11T00:03:38.686Z,100405.09
2023-03-11T00:06:07.593Z,100411.22
2023-03-11T00:08:34.910Z,100418.97
2023-03-11T00:11:02.309Z,100425.81
2023-03-11T00:13:30.588Z,100433.41
2023-03-11T00:15:59.697Z,100424.75
2023-03-11T00:18:30.347Z,100428.91
2023-03-11T00:20:59.049Z,100436.63
2023-03-11T00:23:27.461Z,100444.41
2023-03-11T00:25:55.343Z,100460.84
2023-03-11T00:28:26.100Z,100465.13
2023-03-11T00:30:54.052Z,100467.72
2023-03-11T00:33:22.305Z,100462.59
2023-03-11T00:35:50.165Z,100470.38
2023-03-11T00:38:18.381Z,100471.22
2023-03-11T00:40:48.493Z,100484.19
2023-03-11T00:43:16.933Z,100478.16
2023-03-11T00:45:44.902Z,100487.56
2023-03-11T00:48:13.615Z,100497.06
2023-03-11T00:50:41.757Z,100499.53
2023-03-11T00:53:11.597Z,100502.09
2023-03-11T00:55:39.108Z,100509.78
2023-03-11T00:58:11.039Z,100504.53
2023-03-11T01:00:42.577Z,100509.72
2023-03-11T01:03:10.306Z,100512.38
2023-03-11T01:05:37.668Z,100515.78
2023-03-11T01:08:05.183Z,100520.19
2023-03-11T01:10:34.342Z,100515.91
2023-03-11T01:13:02.068Z,100518.59
2023-03-11T01:15:33.763Z,100527.31
2023-03-11T01:18:01.882Z,100525.63
2023-03-11T01:20:29.574Z,100527.44
2023-03-11T01:22:57.234Z,100537.88
2023-03-11T01:25:24.812Z,100539.63
2023-03-11T01:27:52.222Z,100549.19
2023-03-11T01:30:22.801Z,100545.75
2023-03-11T01:32:53.913Z,100547.53
2023-03-11T01:35:25.658Z,100554.44
2023-03-11T01:37:54.766Z,100557.78
2023-03-11T01:40:35.927Z,100570.56
2023-03-11T01:43:27.860Z,100570.34
2023-03-11T01:45:55.294Z,100567.50
2023-03-11T01:48:26.305Z,100572.53
2023-03-11T01:50:54.512Z,100587.81
2023-03-11T01:53:23.299Z,100577.25
2023-03-11T01:55:51.089Z,100581.63
2023-03-11T01:58:23.001Z,100585.88
2023-03-11T02:00:50.685Z,100579.97
2023-03-11T02:03:25.707Z,100577.38
2023-03-11T02:05:55.537Z,100579.19
2023-03-11T02:08:23.341Z,100580.22
2023-03-11T02:10:53.104Z,100587.19
2023-03-11T02:13:21.056Z,100582.00
2023-03-11T02:15:48.742Z,100590.66
2023-03-11T02:18:22.251Z,100594.19
2023-03-11T02:20:59.238Z,100595.06
2023-03-11T02:23:34.524Z,100593.31
2023-03-11T02:26:11.372Z,100588.13
2023-03-11T02:28:40.180Z,100588.06
2023-03-11T02:31:07.559Z,100593.16
2023-03-11T02:33:37.391Z,100583.56
2023-03-11T02:36:05.748Z,100592.91
2023-03-11T02:38:33.214Z,100590.97
2023-03-11T02:41:02.279Z,100595.13
2023-03-11T02:43:45.222Z,100594.88
2023-03-11T02:46:15.607Z,100605.97
2023-03-11T02:48:43.766Z,100603.38
2023-03-11T02:51:12.539Z,100611.03
2023-03-11T02:53:47.847Z,100618.72
2023-03-11T02:56:15.796Z,100607.34
2023-03-11T02:58:43.476Z,100607.19
2023-03-11T03:01:11.415Z,100616.53
2023-03-11T03:03:40.302Z,100616.50
2023-03-11T03:06:08.235Z,100619.81
2023-03-11T03:08:36.180Z,100621.50
2023-03-11T03:11:03.786Z,100624.03
2023-03-11T03:13:32.569Z,100623.16
2023-03-11T03:16:00.752Z,100629.22
2023-03-11T03:18:28.535Z,100643.78
2023-03-11T03:20:55.891Z,100635.06
2023-03-11T03:23:23.609Z,100646.31
2023-03-11T03:25:51.077Z,100645.34
2023-03-11T03:28:18.642Z,100640.16
2023-03-11T03:30:46.911Z,100640.09
2023-03-11T03:33:15.077Z,100645.28
2023-03-11T03:35:44.753Z,100652.09
2023-03-11T03:38:24.950Z,100648.56
2023-03-11T03:40:53.781Z,100653.72
2023-03-11T03:43:22.335Z,100663.19
2023-03-11T03:46:01.584Z,100664.06
2023-03-11T03:48:33.265Z,100664.84
2023-03-11T03:51:04.674Z,100662.16
2023-03-11T03:53:35.230Z,100661.16
2023-03-11T03:56:08.780Z,100671.41
2023-03-11T03:58:37.402Z,100676.47
2023-03-11T04:01:05.682Z,100674.53
2023-03-11T04:03:35.362Z,100669.31
2023-03-11T04:06:16.248Z,100673.56
2023-03-11T04:08:43.877Z,100684.75
2023-03-11T04:11:13.431Z,100677.88
2023-03-11T04:13:44.583Z,100687.34
2023-03-11T04:16:18.803Z,100677.72
2023-03-11T04:18:47.193Z,100693.13
2023-03-11T04:21:15.446Z,100690.31
2023-03-11T04:23:43.178Z,100691.84
2023-03-11T04:26:12.604Z,100701.25
2023-03-11T04:28:39.857Z,100697.63
2023-03-11T04:31:07.777Z,100704.38
2023-03-11T04:33:35.288Z,100699.94
2023-03-11T04:36:07.663Z,100707.47
2023-03-11T04:38:36.830Z,100716.88
2023-03-11T04:41:06.706Z,100719.28
2023-03-11T04:43:36.021Z,100722.72
2023-03-11T04:46:03.496Z,100728.75
2023-03-11T04:48:31.085Z,100732.00
2023-03-11T04:50:58.941Z,100732.72
2023-03-11T04:53:27.339Z,100729.19
2023-03-11T04:55:55.797Z,100732.34
2023-03-11T04:58:23.167Z,100733.19
2023-03-11T05:00:50.716Z,100735.59
2023-03-11T05:03:18.757Z,100738.03
2023-03-11T05:05:46.329Z,100740.47
2023-03-11T05:08:13.998Z,100738.56
2023-03-11T05:10:43.111Z,100745.09
2023-03-11T05:13:11.094Z,100752.63
2023-03-11T05:15:40.723Z,100741.19
2023-03-11T05:18:08.492Z,100747.00
2023-03-11T05:20:38.552Z,100755.41
2023-03-11T05:23:06.535Z,100767.28
2023-03-11T05:25:36.012Z,100759.19
2023-03-11T05:28:04.917Z,100765.84
2023-03-11T05:30:35.300Z,100762.28
2023-03-11T05:33:04.000Z,100761.25
2023-03-11T05:35:31.780Z,100758.56
2023-03-11T05:37:59.196Z,100762.78
2023-03-11T05:40:29.002Z,100772.13
2023-03-11T05:42:56.400Z,100773.75
2023-03-11T05:45:25.456Z,100778.00
2023-03-11T05:47:54.893Z,100788.19
2023-03-11T05:50:22.398Z,100789.81
2023-03-11T05:52:51.056Z,100784.56
2023-03-11T05:55:20.031Z,100782.69
2023-03-11T05:57:51.415Z,100799.00
2023-03-11T06:00:20.664Z,100798.03
2023-03-11T06:02:51.303Z,100804.00
2023-03-11T06:05:20.061Z,100808.19
2023-03-11T06:07:49.522Z,100815.94
2023-03-11T06:10:17.764Z,100819.34
2023-03-11T06:12:46.219Z,100821.09
2023-03-11T06:15:30.103Z,100822.88
2023-03-11T06:17:57.661Z,100821.97
2023-03-11T06:20:26.480Z,100824.66
2023-03-11T06:22:54.104Z,100829.03
2023-03-11T06:25:23.825Z,100828.13
2023-03-11T06:27:53.417Z,100827.41
2023-03-11T06:30:22.266Z,100834.31
2023-03-11T06:32:57.078Z,100841.28
2023-03-11T06:35:24.550Z,100842.25
2023-03-11T06:37:51.937Z,100844.84
2023-03-11T06:40:19.670Z,100845.00
2023-03-11T06:42:50.619Z,100853.63
2023-03-11T06:45:20.826Z,100848.72
2023-03-11T06:47:49.266Z,100862.69
2023-03-11T06:50:17.316Z,100867.38
2023-03-11T06:52:44.889Z,100866.16
2023-03-11T06:55:12.226Z,100865.22
2023-03-11T06:57:39.757Z,100875.94
2023-03-11T07:00:12.655Z,100877.50
2023-03-11T07:02:42.841Z,100871.97
2023-03-11T07:05:12.502Z,100871.88
2023-03-11T07:07:40.409Z,100876.50
2023-03-11T07:10:08.097Z,100879.19
2023-03-11T07:12:36.149Z,100880.44
2023-03-11T07:15:04.078Z,100886.47
2023-03-11T07:17:32.603Z,100886.00
2023-03-11T07:20:00.008Z,100890.06
2023-03-11T07:22:27.510Z,100894.06
2023-03-11T07:24:54.821Z,100897.66
2023-03-11T07:27:23.267Z,100899.44
2023-03-11T07:29:50.571Z,100909.97
2023-03-11T07:32:18.052Z,100912.00
2023-03-11T07:34:45.482Z,100918.72
2023-03-11T07:37:12.736Z,100914.53
2023-03-11T07:39:39.966Z,100923.06
2023-03-11T07:42:07.508Z,100919.28
2023-03-11T07:44:36.234Z,100917.53
2023-03-11T07:47:07.018Z,100925.03
2023-03-11T07:49:36.172Z,100930.56
2023-03-11T07:52:03.873Z,100933.78
2023-03-11T07:54:31.742Z,100931.59
2023-03-11T07:56:59.067Z,100933.69
2023-03-11T07:59:26.628Z,100936.41
2023-03-11T08:01:54.286Z,100932.16
2023-03-11T08:04:21.555Z,100935.63
2023-03-11T08:06:48.882Z,100938.00
2023-03-11T08:09:16.183Z,100942.25
2023-03-11T08:11:43.559Z,100938.25
2023-03-11T08:14:10.832Z,100942.00
2023-03-11T08:16:40.563Z,100953.63
2023-03-11T08:19:07.831Z,100946.28
2023-03-11T08:21:35.132Z,100951.13
2023-03-11T08:24:02.711Z,100958.91
2023-03-11T08:26:31.989Z,100951.34
2023-03-11T08:28:59.555Z,100961.06
2023-03-11T08:31:29.909Z,100961.22
2023-03-11T08:34:07.049Z,100965.50
2023-03-11T08:36:34.889Z,100964.81
2023-03-11T08:39:02.360Z,100963.88
2023-03-11T08:41:29.931Z,100966.50
2023-03-11T08:43:57.544Z,100961.06
2023-03-11T08:46:28.239Z,100961.75
2023-03-11T08:49:00.909Z,100972.19
2023-03-11T08:51:31.799Z,100971.25
2023-03-11T08:54:00.336Z,100968.03
2023-03-11T08:56:27.844Z,100985.09
2023-03-11T08:58:55.601Z,100977.16
2023-03-11T09:01:23.831Z,100981.66
2023-03-11T09:03:51.532Z,100995.63
2023-03-11T09:06:18.944Z,100986.25
2023-03-11T09:08:47.072Z,100984.53
2023-03-11T09:11:16.020Z,100991.25
2023-03-11T09:13:43.724Z,100993.03
2023-03-11T09:16:21.263Z,100983.56
2023-03-11T09:18:50.034Z,100986.22
2023-03-11T09:21:17.390Z,100988.47
2023-03-11T09:23:44.813Z,100987.84
2023-03-11T09:26:13.290Z,100998.66
2023-03-11T09:28:42.877Z,100984.94
2023-03-11T09:31:10.274Z,100998.34
2023-03-11T09:33:42.234Z,100994.34
2023-03-11T09:36:15.286Z,100985.34
2023-03-11T09:38:43.025Z,100993.94
2023-03-11T09:41:42.407Z,100991.16
2023-03-11T09:44:36.502Z,100982.94
2023-03-11T09:47:23.001Z,100987.31
2023-03-11T09:49:59.632Z,100987.41
2023-03-11T09:53:08.758Z,100988.06
2023-03-11T09:55:44.773Z,100983.72
2023-03-11T09:58:37.898Z,100992.69
2023-03-11T10:01:42.656Z,100998.09
2023-03-11T10:04:27.956Z,100986.00
2023-03-11T10:06:57.009Z,100995.63
2023-03-11T10:09:39.268Z,100985.31
2023-03-11T10:12:15.194Z,100992.19
2023-03-11T10:14:48.908Z,100984.50
2023-03-11T10:17:55.482Z,100982.81
2023-03-11T10:20:27.139Z,100988.84
2023-03-11T10:23:06.679Z,100990.75
2023-03-11T10:25:56.966Z,100986.56
2023-03-11T10:28:33.747Z,100984.03
2023-03-11T10:31:07.774Z,100985.88
2023-03-11T10:33:47.269Z,100986.13
2023-03-11T10:36:23.969Z,100987.16
2023-03-11T10:38:53.485Z,100983.00
2023-03-11T10:41:42.157Z,100983.97
2023-03-11T10:44:17.776Z,100984.91
2023-03-11T10:46:45.396Z,100998.06
2023-03-11T10:49:15.673Z,100993.69
2023-03-11T10:51:46.950Z,100999.09
2023-03-11T10:54:35.862Z,100992.31
2023-03-11T10:57:06.676Z,100988.94
2023-03-11T10:59:35.086Z,100998.78
2023-03-11T11:02:26.020Z,100992.97
2023-03-11T11:05:25.284Z,101000.63
2023-03-11T11:08:04.161Z,101006.56
2023-03-11T11:10:32.363Z,101005.63
2023-03-11T11:13:16.738Z,100999.69
2023-03-11T11:15:55.193Z,100994.75
2023-03-11T11:18:26.936Z,101005.41
2023-03-11T11:21:13.890Z,101003.84
2023-03-11T11:23:43.990Z,101009.22
2023-03-11T11:26:37.470Z,100996.22
2023-03-11T11:29:08.958Z,101000.66
2023-03-11T11:31:38.399Z,100985.97
2023-03-11T11:34:27.702Z,100995.69
2023-03-11T11:36:57.223Z,100990.63
2023-03-11T11:39:27.304Z,100989.75
2023-03-11T11:41:56.744Z,100991.66
2023-03-11T11:44:34.813Z,100996.91
2023-03-11T11:47:19.469Z,100978.63
2023-03-11T11:49:56.838Z,100983.75
2023-03-11T11:52:33.055Z,100981.16
2023-03-11T11:55:25.373Z,100986.47
2023-03-11T11:57:52.906Z,100990.16
2023-03-11T12:00:25.443Z,100979.94
2023-03-11T12:03:01.402Z,100978.53
2023-03-11T12:05:38.743Z,100977.94
2023-03-11T12:08:22.671Z,100981.66
2023-03-11T12:11:04.636Z,100976.53
2023-03-11T12:14:03.230Z,100981.69
2023-03-11T12:16:41.605Z,100986.06
2023-03-11T12:19:12.272Z,100979.34
2023-03-11T12:21:51.716Z,100984.72
2023-03-11T12:24:28.256Z,100974.41
2023-03-11T12:27:01.320Z,100978.88
2023-03-11T12:29:36.383Z,100977.22
2023-03-11T12:32:04.054Z,100976.53
2023-03-11T12:34:35.993Z,100982.03
2023-03-11T12:37:14.965Z,100981.84
2023-03-11T12:39:42.630Z,100981.56
2023-03-11T12:42:25.437Z,100973.38
2023-03-11T12:44:53.947Z,100984.72
2023-03-11T12:47:29.088Z,100973.91
2023-03-11T12:50:34.708Z,100979.81
2023-03-11T12:53:02.034Z,100983.34
2023-03-11T12:55:32.917Z,100982.00
2023-03-11T12:58:38.003Z,100979.69
2023-03-11T13:01:17.711Z,100988.41
2023-03-11T13:03:57.107Z,100989.38
2023-03-11T13:07:01.226Z,100992.91
2023-03-11T13:09:31.345Z,100997.19
2023-03-11T13:11:59.012Z,100993.91
2023-03-11T13:14:31.508Z,100988.69
2023-03-11T13:17:27.049Z,101001.50
2023-03-11T13:19:56.742Z,100998.94
2023-03-11T13:22:39.493Z,101006.50
2023-03-11T13:25:30.547Z,100998.34
2023-03-11T13:28:14.913Z,100999.78
2023-03-11T13:30:52.883Z,100991.16
2023-03-11T13:33:37.634Z,100989.75
2023-03-11T13:36:14.116Z,100992.66
2023-03-11T13:39:00.059Z,100992.88
2023-03-11T13:41:34.872Z,100989.38
2023-03-11T13:44:22.423Z,100987.16
2023-03-11T13:46:54.848Z,100981.75
2023-03-11T13:49:41.175Z,100979.13
2023-03-11T13:52:14.684Z,100985.41
2023-03-11T13:54:52.815Z,101000.38
2023-03-11T13:57:28.362Z,101003.63
2023-03-11T13:59:56.818Z,101007.69
2023-03-11T14:02:28.035Z,101011.78
2023-03-11T14:05:04.392Z,101016.78
2023-03-11T14:07:35.249Z,101021.97
2023-03-11T14:10:17.023Z,101013.72
2023-03-11T14:12:44.916Z,101016.91
2023-03-11T14:15:23.556Z,101024.34
2023-03-11T14:17:53.111Z,101017.88
2023-03-11T14:20:25.233Z,101019.50
2023-03-11T14:22:56.129Z,101020.53
2023-03-11T14:25:25.570Z,101030.97
2023-03-11T14:28:04.859Z,101028.31
2023-03-11T14:30:34.784Z,101023.25
2023-03-11T14:33:20.587Z,101030.69
2023-03-11T14:36:07.295Z,101021.25
2023-03-11T14:38:34.632Z,101024.84
2023-03-11T14:41:06.591Z,101029.38
2023-03-11T14:43:39.302Z,101029.50
2023-03-11T14:46:08.116Z,101031.97
2023-03-11T14:48:41.972Z,101032.69
2023-03-11T14:51:22.037Z,101036.94
2023-03-11T14:54:15.871Z,101041.03
2023-03-11T14:56:49.738Z,101053.03
2023-03-11T14:59:27.000Z,101051.94
2023-03-11T15:01:58.376Z,101062.19
2023-03-11T15:04:27.475Z,101069.66
2023-03-11T15:06:55.447Z,101068.41
2023-03-11T15:09:25.024Z,101051.47
2023-03-11T15:12:00.929Z,101060.75
2023-03-11T15:14:33.803Z,101069.09
2023-03-11T15:17:32.958Z,101062.78
2023-03-11T15:20:01.432Z,101065.84
2023-03-11T15:22:40.331Z,101066.53
2023-03-11T15:25:17.602Z,101085.28
2023-03-11T15:27:46.129Z,101080.44
2023-03-11T15:30:31.670Z,101080.91
2023-03-11T15:32:59.542Z,101078.09
2023-03-11T15:35:28.926Z,101068.41
2023-03-11T15:38:21.415Z,101075.56
2023-03-11T15:41:02.690Z,101070.53
2023-03-11T15:43:41.058Z,101071.28
2023-03-11T15:46:10.544Z,101070.28
2023-03-11T15:48:37.883Z,101071.69
2023-03-11T15:51:05.281Z,101065.53
2023-03-11T15:53:35.551Z,101061.00
2023-03-11T15:56:12.167Z,101067.56
2023-03-11T15:58:39.420Z,101062.00
2023-03-11T16:01:07.435Z,101070.50
2023-03-11T16:03:39.989Z,101060.78
2023-03-11T16:06:07.553Z,101069.56
2023-03-11T16:08:34.894Z,101058.28
2023-03-11T16:11:02.222Z,101060.16
2023-03-11T16:13:29.462Z,101063.69
2023-03-11T16:15:56.874Z,101062.00
2023-03-11T16:18:24.415Z,101062.88
2023-03-11T16:20:54.450Z,101056.75
2023-03-11T16:23:26.128Z,101063.69
2023-03-11T16:25:58.928Z,101080.13
2023-03-11T16:28:26.498Z,101076.63
2023-03-11T16:30:54.672Z,101073.09
2023-03-11T16:33:22.062Z,101072.16
2023-03-11T16:35:49.367Z,101074.75
2023-03-11T16:38:19.398Z,101068.63
2023-03-11T16:40:56.300Z,101072.75
2023-03-11T16:43:23.644Z,101069.88
2023-03-11T16:45:50.958Z,101065.19
2023-03-11T16:48:18.260Z,101071.94
2023-03-11T16:50:45.472Z,101070.91
2023-03-11T16:53:16.085Z,101085.31
2023-03-11T16:55:46.664Z,101077.16
2023-03-11T16:58:14.715Z,101072.50
2023-03-11T17:00:42.242Z,101077.41
2023-03-11T17:03:21.380Z,101087.53
2023-03-11T17:05:49.542Z,101086.44
2023-03-11T17:08:18.404Z,101093.88
2023-03-11T17:10:46.925Z,101089.25
2023-03-11T17:13:16.516Z,101090.66
2023-03-11T17:15:45.986Z,101095.63
2023-03-11T17:18:13.731Z,101089.34
2023-03-11T17:20:43.676Z,101093.38
2023-03-11T17:23:11.116Z,101098.41
2023-03-11T17:25:41.976Z,101103.47
2023-03-11T17:28:09.747Z,101111.22
2023-03-11T17:30:41.516Z,101112.72
2023-03-11T17:33:08.859Z,101105.63
2023-03-11T17:35:36.199Z,101119.44
2023-03-11T17:38:03.740Z,101121.78
2023-03-11T17:40:32.764Z,101122.47
2023-03-11T17:43:00.163Z,101122.34
2023-03-11T17:45:27.519Z,101117.91
2023-03-11T17:47:55.676Z,101119.56
2023-03-11T17:50:23.001Z,101124.59
2023-03-11T17:52:50.533Z,101121.06
2023-03-11T17:55:17.933Z,101118.44
2023-03-11T17:57:46.052Z,101114.97
2023-03-11T18:00:15.140Z,101117.28
2023-03-11T18:02:42.872Z,101121.41
2023-03-11T18:05:10.769Z,101127.28
2023-03-11T18:07:39.319Z,101136.69
2023-03-11T18:10:07.667Z,101134.94
2023-03-11T18:12:35.273Z,101137.31
2023-03-11T18:15:06.151Z,101131.84
2023-03-11T18:17:35.311Z,101141.22
2023-03-11T18:20:03.455Z,101141.88
2023-03-11T18:22:35.193Z,101141.63
2023-03-11T18:25:02.740Z,101136.19
2023-03-11T18:27:30.003Z,101138.59
2023-03-11T18:29:57.214Z,101141.88
2023-03-11T18:32:24.760Z,101137.28
2023-03-11T18:34:52.364Z,101141.53
2023-03-11T18:37:19.638Z,101150.03
2023-03-11T18:39:46.864Z,101161.09
2023-03-11T18:42:15.929Z,101156.66
2023-03-11T18:44:43.455Z,101161.78
2023-03-11T18:47:10.698Z,101161.63
2023-03-11T18:49:38.010Z,101164.88
2023-03-11T18:52:05.477Z,101157.03
2023-03-11T18:54:33.007Z,101158.56
2023-03-11T18:57:00.333Z,101157.63
2023-03-11T18:59:27.849Z,101154.06
2023-03-11T19:01:55.560Z,101164.41
2023-03-11T19:04:23.060Z,101159.81
2023-03-11T19:06:50.664Z,101162.22
2023-03-11T19:09:18.494Z,101163.72
2023-03-11T19:11:46.309Z,101171.41
2023-03-11T19:14:13.598Z,101167.78
2023-03-11T19:16:42.828Z,101175.41
2023-03-11T19:19:11.889Z,101176.22
2023-03-11T19:21:42.031Z,101176.13
2023-03-11T19:24:09.411Z,101184.75
2023-03-11T19:26:44.761Z,101188.09
2023-03-11T19:29:15.119Z,101188.81
2023-03-11T19:31:44.107Z,101193.88
2023-03-11T19:34:11.852Z,101185.16
2023-03-11T19:36:39.643Z,101186.72
2023-03-11T19:39:07.571Z,101179.78
2023-03-11T19:41:35.177Z,101184.88
2023-03-11T19:44:04.413Z,101190.81
2023-03-11T19:46:34.937Z,101177.75
2023-03-11T19:49:03.541Z,101184.56
2023-03-11T19:51:46.602Z,101176.72
2023-03-11T19:54:16.823Z,101174.88
2023-03-11T19:56:44.439Z,101191.22
2023-03-11T19:59:12.881Z,101187.75
2023-03-11T20:01:43.080Z,101182.47
2023-03-11T20:04:11.142Z,101186.78
2023-03-11T20:06:38.716Z,101191.06
2023-03-11T20:09:06.801Z,101188.47
2023-03-11T20:11:38.522Z,101185.00
2023-03-11T20:14:08.407Z,101191.88
2023-03-11T20:16:35.853Z,101190.91
2023-03-11T20:19:03.572Z,101189.88
2023-03-11T20:21:31.211Z,101196.75
2023-03-11T20:23:59.030Z,101196.69
2023-03-11T20:26:26.746Z,101188.81
2023-03-11T20:28:57.632Z,101190.53
2023-03-11T20:31:27.453Z,101187.03
2023-03-11T20:33:56.376Z,101199.09
2023-03-11T20:36:29.594Z,101195.63
2023-03-11T20:38:57.413Z,101197.38
2023-03-11T20:41:26.536Z,101200.81
2023-03-11T20:43:56.211Z,101196.50
2023-03-11T20:46:23.782Z,101195.72
2023-03-11T20:48:51.369Z,101194.88
2023-03-11T20:51:20.512Z,101200.16
2023-03-11T20:53:49.022Z,101204.53
2023-03-11T20:56:19.083Z,101201.13
2023-03-11T20:58:49.040Z,101200.22
2023-03-11T21:01:19.406Z,101218.47
2023-03-11T21:03:47.710Z,101219.44
2023-03-11T21:06:18.235Z,101224.75
2023-03-11T21:08:46.708Z,101214.53
2023-03-11T21:11:14.870Z,101210.09
2023-03-11T21:13:42.447Z,101211.78
2023-03-11T21:16:10.662Z,101216.16
2023-03-11T21:18:38.774Z,101216.25
2023-03-11T21:21:08.776Z,101218.94
2023-03-11T21:23:36.107Z,101227.50
2023-03-11T21:26:05.359Z,101218.03
2023-03-11T21:28:39.783Z,101218.03
2023-03-11T21:31:11.936Z,101224.13
2023-03-11T21:33:40.424Z,101219.72
2023-03-11T21:36:10.051Z,101222.31
2023-03-11T21:38:38.004Z,101219.72
2023-03-11T21:41:20.107Z,101211.16
2023-03-11T21:43:48.125Z,101218.94
2023-03-11T21:46:21.952Z,101220.56
2023-03-11T21:48:51.557Z,101218.69
2023-03-11T21:51:19.910Z,101211.72
2023-03-11T21:53:48.111Z,101219.34
2023-03-11T21:56:15.715Z,101212.22
2023-03-11T21:58:43.325Z,101210.34
2023-03-11T22:01:11.384Z,101199.94
2023-03-11T22:03:39.216Z,101205.81
2023-03-11T22:06:11.009Z,101207.44
2023-03-11T22:08:41.421Z,101208.19
2023-03-11T22:11:12.698Z,101205.34
2023-03-11T22:13:40.452Z,101203.50
2023-03-11T22:16:08.368Z,101204.25
2023-03-11T22:18:35.940Z,101200.59
2023-03-11T22:21:03.706Z,101206.47
2023-03-11T22:23:31.547Z,101202.78
2023-03-11T22:25:58.985Z,101204.22
2023-03-11T22:28:26.565Z,101204.88
2023-03-11T22:30:54.956Z,101209.09
2023-03-11T22:33:23.424Z,101195.97
2023-03-11T22:35:55.437Z,101215.72
2023-03-11T22:38:23.492Z,101209.50
2023-03-11T22:40:52.203Z,101203.34
2023-03-11T22:43:19.924Z,101210.22
2023-03-11T22:45:47.280Z,101204.16
2023-03-11T22:48:15.348Z,101213.78
2023-03-11T22:50:44.539Z,101210.31
2023-03-11T22:53:13.232Z,101214.75
2023-03-11T22:55:44.573Z,101212.16
2023-03-11T22:58:12.337Z,101213.03
2023-03-11T23:00:39.842Z,101220.91
2023-03-11T23:03:07.688Z,101226.97
2023-03-11T23:05:41.980Z,101223.56
2023-03-11T23:08:11.252Z,101218.41
2023-03-11T23:10:43.471Z,101220.16
2023-03-11T23:13:11.593Z,101208.03
2023-03-11T23:15:45.079Z,101215.91
2023-03-11T23:18:13.689Z,101219.38
2023-03-11T23:20:42.556Z,101213.31
2023-03-11T23:23:10.451Z,101210.72
2023-03-11T23:25:38.777Z,101210.72
2023-03-11T23:28:06.588Z,101201.00
2023-03-11T23:30:33.917Z,101200.19
2023-03-11T23:33:03.037Z,101200.00
2023-03-11T23:35:31.646Z,101206.00
2023-03-11T23:37:59.630Z,101200.56
2023-03-11T23:40:27.452Z,101201.31
2023-03-11T23:42:55.493Z,101207.13
2023-03-11T23:45:22.819Z,101201.78
2023-03-11T23:47:50.194Z,101204.28
2023-03-11T23:50:17.512Z,101205.09
2023-03-11T23:52:44.822Z,101205.03
2023-03-11T23:55:12.177Z,101204.06
2023-03-11T23:57:39.483Z,101206.72
